createdAt,value
2023-01-11T06:28:06.108Z,60.71
2023-01-11T06:30:10.035Z,60.15
2023-01-11T06:32:12.726Z,59.76
2023-01-11T06:34:15.472Z,59.46
2023-01-11T06:36:18.459Z,59.33
2023-01-11T06:38:23.513Z,59.04
2023-01-11T06:40:26.217Z,59.06
2023-01-11T06:42:28.937Z,58.91
2023-01-11T06:44:32.978Z,58.77
2023-01-11T06:46:35.773Z,58.86
2023-01-11T06:48:38.524Z,58.90
2023-01-11T06:50:41.275Z,58.50
2023-01-11T06:52:44.162Z,58.81
2023-01-11T06:54:46.934Z,58.77
2023-01-11T06:56:49.895Z,58.68
2023-01-11T06:58:52.865Z,58.36
2023-01-11T07:00:58.202Z,58.48
2023-01-11T07:03:04.707Z,58.44
2023-01-11T07:05:07.985Z,58.05
2023-01-11T07:07:10.692Z,58.14
2023-01-11T07:09:13.394Z,57.93
2023-01-11T07:11:16.191Z,58.31
2023-01-11T07:13:19.244Z,58.23
2023-01-11T07:15:23.545Z,58.18
2023-01-11T07:17:27.765Z,58.04
2023-01-11T07:19:30.536Z,57.69
2023-01-11T07:21:33.329Z,57.94
2023-01-11T07:23:36.147Z,57.55
2023-01-11T07:25:39.095Z,57.44
2023-01-11T07:27:41.992Z,57.44
2023-01-11T07:29:44.755Z,57.38
2023-01-11T07:31:47.769Z,57.67
2023-01-11T07:33:52.144Z,57.41
2023-01-11T07:35:55.455Z,57.44
2023-01-11T07:37:58.546Z,57.22
2023-01-11T07:40:01.360Z,57.05
2023-01-11T07:42:21.889Z,57.12
2023-01-11T07:44:24.663Z,56.94
2023-01-11T07:46:28.506Z,57.04
2023-01-11T07:48:31.446Z,56.82
2023-01-11T07:50:35.557Z,56.65
2023-01-11T07:52:38.422Z,56.56
2023-01-11T07:54:41.171Z,56.27
2023-01-11T07:56:43.947Z,56.61
2023-01-11T07:58:46.771Z,56.64
2023-01-11T08:00:49.585Z,56.43
2023-01-11T08:02:55.569Z,56.41
2023-01-11T08:04:59.126Z,56.40
2023-01-11T08:07:03.269Z,56.57
2023-01-11T08:09:06.681Z,56.13
2023-01-11T08:11:27.030Z,56.08
2023-01-11T08:14:01.868Z,56.46
2023-01-11T08:16:05.330Z,56.02
2023-01-11T08:18:08.468Z,56.20
2023-01-11T08:20:12.575Z,56.42
2023-01-11T08:22:17.579Z,56.07
2023-01-11T08:24:21.510Z,56.31
2023-01-11T08:26:25.274Z,56.06
2023-01-11T08:28:28.130Z,56.05
2023-01-11T08:30:31.549Z,56.10
2023-01-11T08:32:34.411Z,55.82
2023-01-11T08:34:37.075Z,55.89
2023-01-11T08:36:39.894Z,55.85
2023-01-11T08:38:45.651Z,55.69
2023-01-11T08:40:48.730Z,55.68
2023-01-11T08:42:55.743Z,55.94
2023-01-11T08:44:58.665Z,55.62
2023-01-11T08:47:02.259Z,56.01
2023-01-11T08:49:11.172Z,55.59
2023-01-11T08:51:14.695Z,55.91
2023-01-11T08:53:17.478Z,55.90
2023-01-11T08:55:21.761Z,55.65
2023-01-11T08:57:27.127Z,55.34
2023-01-11T08:59:29.874Z,55.50
2023-01-11T09:01:33.579Z,55.80
2023-01-11T09:03:36.757Z,55.45
2023-01-11T09:05:40.045Z,55.39
2023-01-11T09:07:45.208Z,55.53
2023-01-11T09:09:47.915Z,55.50
2023-01-11T09:11:57.575Z,55.30
2023-01-11T09:14:00.474Z,55.32
2023-01-11T09:16:04.663Z,55.17
2023-01-11T09:18:10.648Z,55.11
2023-01-11T09:20:14.076Z,55.19
2023-01-11T09:22:16.936Z,55.16
2023-01-11T09:24:20.168Z,55.29
2023-01-11T09:26:22.987Z,55.11
2023-01-11T09:28:27.029Z,55.12
2023-01-11T09:30:29.827Z,54.94
2023-01-11T09:32:32.572Z,55.24
2023-01-11T09:34:35.887Z,55.08
2023-01-11T09:36:41.119Z,54.87
2023-01-11T09:38:43.935Z,54.66
2023-01-11T09:40:55.574Z,54.79
2023-01-11T09:43:01.330Z,54.52
2023-01-11T09:45:14.517Z,54.66
2023-01-11T09:47:25.954Z,54.39
2023-01-11T09:49:33.803Z,54.67
2023-01-11T09:51:40.642Z,54.21
2023-01-11T09:53:49.419Z,54.03
2023-01-11T09:55:54.173Z,54.32
2023-01-11T09:58:06.513Z,54.35
2023-01-11T10:00:23.828Z,53.83
2023-01-11T10:02:42.686Z,53.95
2023-01-11T10:04:59.274Z,53.89
2023-01-11T10:07:19.754Z,54.06
2023-01-11T10:18:32.627Z,53.83
2023-01-11T10:18:39.330Z,53.75
2023-01-11T10:19:47.981Z,53.93
2023-01-11T10:21:55.901Z,53.65
2023-01-11T10:24:03.192Z,53.75
2023-01-11T10:26:13.641Z,53.40
2023-01-11T10:28:23.912Z,53.60
2023-01-11T10:30:41.921Z,53.31
2023-01-11T10:33:06.133Z,53.34
2023-01-11T10:35:29.287Z,53.64
2023-01-11T10:37:50.019Z,53.38
2023-01-11T10:40:18.371Z,53.47
2023-01-11T10:42:23.623Z,53.49
2023-01-11T10:44:34.355Z,53.41
2023-01-11T10:46:43.443Z,53.32
2023-01-11T10:48:48.081Z,53.39
2023-01-11T10:50:58.589Z,53.70
2023-01-11T10:53:11.745Z,53.41
2023-01-11T10:55:17.488Z,53.49
2023-01-11T10:57:34.490Z,53.64
2023-01-11T10:59:58.708Z,53.62
2023-01-11T11:02:13.432Z,53.48
2023-01-11T11:04:31.302Z,53.62
2023-01-11T11:06:45.585Z,53.67
2023-01-11T11:08:54.501Z,53.26
2023-01-11T11:11:02.342Z,53.31
2023-01-11T11:13:14.630Z,53.41
2023-01-11T11:15:23.618Z,53.50
2023-01-11T11:17:31.320Z,53.27
2023-01-11T11:19:35.559Z,53.37
2023-01-11T11:21:40.798Z,53.58
2023-01-11T11:23:45.355Z,53.75
2023-01-11T11:25:52.381Z,53.55
2023-01-11T11:27:59.227Z,53.68
2023-01-11T11:30:01.908Z,53.78
2023-01-11T11:32:05.036Z,53.68
2023-01-11T11:34:09.793Z,53.93
2023-01-11T11:36:17.525Z,53.75
2023-01-11T11:38:23.880Z,53.70
2023-01-11T11:40:32.706Z,54.07
2023-01-11T11:42:35.649Z,54.16
2023-01-11T11:44:38.549Z,53.97
2023-01-11T11:46:41.346Z,54.08
2023-01-11T11:48:45.220Z,54.07
2023-01-11T11:50:49.266Z,53.88
2023-01-11T11:52:56.092Z,54.12
2023-01-11T11:54:59.749Z,54.26
2023-01-11T11:57:15.483Z,54.15
2023-01-11T11:59:20.959Z,54.44
2023-01-11T12:01:27.603Z,54.58
2023-01-11T12:03:33.625Z,54.60
2023-01-11T12:05:36.474Z,54.60
2023-01-11T12:07:54.643Z,54.86
2023-01-11T12:10:03.089Z,54.91
2023-01-11T12:12:06.505Z,54.85
2023-01-11T12:14:18.569Z,54.80
2023-01-11T12:16:23.859Z,55.16
2023-01-11T12:18:28.750Z,54.97
2023-01-11T12:20:40.613Z,55.23
2023-01-11T12:22:44.335Z,55.49
2023-01-11T12:24:48.252Z,55.25
2023-01-11T12:27:03.928Z,55.65
2023-01-11T12:29:29.505Z,55.45
2023-01-11T12:31:44.579Z,55.65
2023-01-11T12:33:50.147Z,55.50
2023-01-11T12:36:02.410Z,56.04
2023-01-11T12:38:24.627Z,55.91
2023-01-11T12:40:37.087Z,56.04
2023-01-11T12:42:59.594Z,55.90
2023-01-11T12:45:16.255Z,56.26
2023-01-11T12:47:48.706Z,56.13
2023-01-11T12:49:56.920Z,56.24
2023-01-11T12:52:27.736Z,56.31
2023-01-11T12:54:52.753Z,56.50
2023-01-11T12:57:13.959Z,56.48
2023-01-11T12:59:36.256Z,56.45
2023-01-11T13:01:44.130Z,56.90
2023-01-11T13:04:15.002Z,56.67
2023-01-11T13:06:26.787Z,57.12
2023-01-11T13:08:44.092Z,56.81
2023-01-11T13:10:56.766Z,56.73
2023-01-11T13:13:06.833Z,57.14
2023-01-11T13:15:41.829Z,56.85
2023-01-11T13:17:50.755Z,57.45
2023-01-11T13:20:04.385Z,57.13
2023-01-11T13:22:15.360Z,56.92
2023-01-11T13:24:25.416Z,57.06
2023-01-11T13:26:34.742Z,56.98
2023-01-11T13:28:40.801Z,57.29
2023-01-11T13:30:47.384Z,57.42
2023-01-11T13:32:56.519Z,57.44
2023-01-11T13:35:07.089Z,57.45
2023-01-11T13:37:17.661Z,57.57
2023-01-11T13:39:24.073Z,57.40
2023-01-11T13:41:31.447Z,57.69
2023-01-11T13:43:41.497Z,57.75
2023-01-11T13:45:50.357Z,58.11
2023-01-11T13:47:58.218Z,58.18
2023-01-11T13:50:04.801Z,58.04
2023-01-11T13:52:13.847Z,58.17
2023-01-11T13:54:21.609Z,58.01
2023-01-11T13:56:31.155Z,58.12
2023-01-11T13:58:45.023Z,58.42
2023-01-11T14:00:54.631Z,58.31
2023-01-11T14:03:04.297Z,58.24
2023-01-11T14:05:14.257Z,58.27
2023-01-11T14:07:28.949Z,58.57
2023-01-11T14:09:55.376Z,58.20
2023-01-11T14:12:06.826Z,58.67
2023-01-11T14:14:45.669Z,58.56
2023-01-11T14:17:14.718Z,58.30
2023-01-11T14:19:24.154Z,58.49
2023-01-11T14:21:33.221Z,58.91
2023-01-11T14:23:46.426Z,58.89
2023-01-11T14:26:30.976Z,59.27
2023-01-11T14:28:52.462Z,59.09
2023-01-11T14:31:24.177Z,59.13
2023-01-11T14:33:57.677Z,58.95
2023-01-11T14:36:22.453Z,59.01
2023-01-11T14:38:45.683Z,59.32
2023-01-11T14:41:11.366Z,59.45
2023-01-11T14:43:43.608Z,59.29
2023-01-11T14:46:10.087Z,59.04
2023-01-11T14:48:27.500Z,59.30
2023-01-11T14:50:45.467Z,59.55
2023-01-11T14:52:51.695Z,59.42
2023-01-11T14:54:57.139Z,59.28
2023-01-11T14:57:01.569Z,59.39
2023-01-11T14:59:06.212Z,59.23
2023-01-11T15:01:11.847Z,59.56
2023-01-11T15:03:35.973Z,59.61
2023-01-11T15:05:47.789Z,59.70
2023-01-11T15:07:51.993Z,60.00
2023-01-11T15:09:55.385Z,59.84
2023-01-11T15:12:14.085Z,59.94
2023-01-11T15:14:28.096Z,59.89
2023-01-11T15:16:51.115Z,59.78
2023-01-11T15:18:55.005Z,60.15
2023-01-11T15:21:04.983Z,60.03
2023-01-11T15:23:08.097Z,59.81
2023-01-11T15:25:23.096Z,60.42
2023-01-11T15:27:28.643Z,59.89
2023-01-11T15:29:33.349Z,60.12
2023-01-11T15:31:40.056Z,60.18
2023-01-11T15:33:48.059Z,60.38
2023-01-11T15:36:04.167Z,60.61
2023-01-11T15:38:14.017Z,60.36
2023-01-11T15:40:21.958Z,60.56
2023-01-11T15:43:02.597Z,60.35
2023-01-11T15:45:37.871Z,60.46
2023-01-11T15:48:08.999Z,60.75
2023-01-11T15:50:46.964Z,60.71
2023-01-11T15:53:34.778Z,60.80
2023-01-11T15:56:22.224Z,60.69
2023-01-11T15:59:01.176Z,60.77
2023-01-11T16:01:21.503Z,60.89
2023-01-11T16:03:38.811Z,61.03
2023-01-11T16:05:45.133Z,60.93
2023-01-11T16:07:57.631Z,60.72
2023-01-11T16:10:16.164Z,61.06
2023-01-11T16:12:42.317Z,60.76
2023-01-11T16:15:09.466Z,61.15
2023-01-11T16:17:15.191Z,60.73
2023-01-11T16:19:21.866Z,60.80
2023-01-11T16:21:33.325Z,60.82
2023-01-11T16:23:36.798Z,61.13
2023-01-11T16:25:42.990Z,61.07
2023-01-11T16:27:53.257Z,61.15
2023-01-11T16:29:56.748Z,60.93
2023-01-11T16:32:01.877Z,60.95
2023-01-11T16:34:07.581Z,61.18
2023-01-11T16:36:13.917Z,60.95
2023-01-11T16:38:20.357Z,61.05
2023-01-11T16:40:27.317Z,61.10
2023-01-11T16:42:35.546Z,61.23
2023-01-11T16:44:42.745Z,61.46
2023-01-11T16:47:07.836Z,61.52
2023-01-11T16:49:11.639Z,61.72
2023-01-11T16:51:16.953Z,61.44
2023-01-11T16:53:21.139Z,61.31
2023-01-11T16:55:29.521Z,61.59
2023-01-11T16:57:39.477Z,61.77
2023-01-11T16:59:42.180Z,61.52
2023-01-11T17:01:53.871Z,61.53
2023-01-11T17:03:56.862Z,61.85
2023-01-11T17:06:19.384Z,61.65
2023-01-11T17:08:27.738Z,61.41
2023-01-11T17:10:31.124Z,61.72
2023-01-11T17:12:35.607Z,61.92
2023-01-11T17:15:01.936Z,61.65
2023-01-11T17:17:07.914Z,61.86
2023-01-11T17:19:16.610Z,62.00
2023-01-11T17:21:21.783Z,61.77
2023-01-11T17:23:24.641Z,61.65
2023-01-11T17:25:37.358Z,62.12
2023-01-11T17:27:54.755Z,62.02
2023-01-11T17:30:00.521Z,61.76
2023-01-11T17:32:06.874Z,61.65
2023-01-11T17:34:26.331Z,61.78
2023-01-11T17:36:30.311Z,62.17
2023-01-11T17:38:33.811Z,62.00
2023-01-11T17:40:39.360Z,61.95
2023-01-11T17:42:59.956Z,62.18
2023-01-11T17:45:18.565Z,62.09
2023-01-11T17:47:23.420Z,62.20
2023-01-11T17:49:26.863Z,62.06
2023-01-11T17:51:32.158Z,62.20
2023-01-11T17:53:37.315Z,62.46
2023-01-11T17:55:50.886Z,62.23
2023-01-11T17:58:19.293Z,62.17
2023-01-11T18:00:29.330Z,62.14
2023-01-11T18:02:32.115Z,62.31
2023-01-11T18:04:36.625Z,62.16
2023-01-11T18:06:42.529Z,62.60
2023-01-11T18:08:50.943Z,62.74
2023-01-11T18:10:55.956Z,62.58
2023-01-11T18:13:01.068Z,62.56
2023-01-11T18:15:07.085Z,62.42
2023-01-11T18:17:31.226Z,62.80
2023-01-11T18:19:39.129Z,62.78
2023-01-11T18:21:52.297Z,62.76
2023-01-11T18:24:22.290Z,62.53
2023-01-11T18:26:29.409Z,62.88
2023-01-11T18:28:38.908Z,62.68
2023-01-11T18:30:43.044Z,63.04
2023-01-11T18:32:47.240Z,62.84
2023-01-11T18:34:53.252Z,62.86
2023-01-11T18:36:58.724Z,62.84
2023-01-11T18:39:01.994Z,62.79
2023-01-11T18:41:22.643Z,62.93
2023-01-11T18:43:28.231Z,62.99
2023-01-11T18:45:31.035Z,63.30
2023-01-11T18:47:33.765Z,63.09
2023-01-11T18:49:38.150Z,63.17
2023-01-11T18:51:41.627Z,63.01
2023-01-11T18:53:44.368Z,63.11
2023-01-11T18:55:47.407Z,63.06
2023-01-11T18:57:52.760Z,63.23
2023-01-11T18:59:55.875Z,63.05
2023-01-11T19:02:16.362Z,63.29
2023-01-11T19:04:19.873Z,63.17
2023-01-11T19:06:23.680Z,62.97
2023-01-11T19:08:26.519Z,63.15
2023-01-11T19:10:29.336Z,63.10
2023-01-11T19:12:32.043Z,63.31
2023-01-11T19:14:35.128Z,63.37
2023-01-11T19:16:37.810Z,63.25
2023-01-11T19:18:40.473Z,63.48
2023-01-11T19:20:43.359Z,63.16
2023-01-11T19:22:47.459Z,63.40
2023-01-11T19:24:50.108Z,63.37
2023-01-11T19:26:52.885Z,63.57
2023-01-11T19:28:55.594Z,63.16
2023-01-11T19:30:58.511Z,63.53
2023-01-11T19:33:01.320Z,63.42
2023-01-11T19:35:04.134Z,63.39
2023-01-11T19:37:06.749Z,63.14
2023-01-11T19:39:11.061Z,63.59
2023-01-11T19:41:15.629Z,63.31
2023-01-11T19:43:18.333Z,63.35
2023-01-11T19:45:21.289Z,63.43
2023-01-11T19:47:23.975Z,63.29
2023-01-11T19:49:26.925Z,63.71
2023-01-11T19:51:29.643Z,63.81
2023-01-11T19:53:33.165Z,63.37
2023-01-11T19:55:41.026Z,63.49
2023-01-11T19:57:43.779Z,63.69
2023-01-11T19:59:46.689Z,63.42
2023-01-11T20:01:49.766Z,63.78
2023-01-11T20:03:52.550Z,63.53
2023-01-11T20:06:04.573Z,63.80
2023-01-11T20:08:07.339Z,63.80
2023-01-11T20:10:11.538Z,63.95
2023-01-11T20:12:16.206Z,63.81
2023-01-11T20:14:18.992Z,63.53
2023-01-11T20:16:24.215Z,63.64
2023-01-11T20:18:27.224Z,64.03
2023-01-11T20:20:29.929Z,63.77
2023-01-11T20:22:33.160Z,63.89
2023-01-11T20:24:35.822Z,63.95
2023-01-11T20:26:38.732Z,63.72
2023-01-11T20:28:43.166Z,63.81
2023-01-11T20:30:45.780Z,63.96
2023-01-11T20:32:51.379Z,63.90
2023-01-11T20:34:54.058Z,64.12
2023-01-11T20:36:59.907Z,64.01
2023-01-11T20:39:02.814Z,64.01
2023-01-11T20:41:09.081Z,64.30
2023-01-11T20:43:12.076Z,64.19
2023-01-11T20:45:16.516Z,64.40
2023-01-11T20:47:21.518Z,64.39
2023-01-11T20:49:31.212Z,64.22
2023-01-11T20:51:34.165Z,64.37
2023-01-11T20:53:37.400Z,64.13
2023-01-11T20:55:40.135Z,64.55
2023-01-11T20:57:45.352Z,64.55
2023-01-11T20:59:48.111Z,64.49
2023-01-11T21:01:52.222Z,64.46
2023-01-11T21:03:55.483Z,64.36
2023-01-11T21:05:58.348Z,64.48
2023-01-11T21:08:01.271Z,64.43
2023-01-11T21:10:03.994Z,64.58
2023-01-11T21:12:09.388Z,64.71
2023-01-11T21:14:12.847Z,64.44
2023-01-11T21:16:17.352Z,64.49
2023-01-11T21:18:21.589Z,64.42
2023-01-11T21:20:24.415Z,64.36
2023-01-11T21:22:27.576Z,64.75
2023-01-11T21:24:30.770Z,64.85
2023-01-11T21:26:47.913Z,64.56
2023-01-11T21:28:53.193Z,64.75
2023-01-11T21:31:04.361Z,64.93
2023-01-11T21:33:06.982Z,64.58
2023-01-11T21:35:11.418Z,64.84
2023-01-11T21:37:14.133Z,64.92
2023-01-11T21:39:17.534Z,64.85
2023-01-11T21:41:42.024Z,64.69
2023-01-11T21:43:44.839Z,64.80
2023-01-11T21:45:55.484Z,65.01
2023-01-11T21:47:58.167Z,65.00
2023-01-11T21:50:01.015Z,64.87
2023-01-11T21:52:05.158Z,64.72
2023-01-11T21:54:10.349Z,64.89
2023-01-11T21:56:13.652Z,64.89
2023-01-11T21:58:16.572Z,65.08
2023-01-11T22:00:20.472Z,64.93
2023-01-11T22:02:23.190Z,64.86
2023-01-11T22:04:26.058Z,64.88
2023-01-11T22:06:28.866Z,65.23
2023-01-11T22:08:35.631Z,65.21
2023-01-11T22:10:39.250Z,65.12
2023-01-11T22:12:42.407Z,65.35
2023-01-11T22:14:45.595Z,65.20
2023-01-11T22:16:48.536Z,65.22
2023-01-11T22:18:51.225Z,65.02
2023-01-11T22:20:54.066Z,64.97
2023-01-11T22:22:56.764Z,65.23
2023-01-11T22:25:01.019Z,65.27
2023-01-11T22:27:03.837Z,65.14
2023-01-11T22:29:15.401Z,65.18
2023-01-11T22:31:18.274Z,65.29
2023-01-11T22:33:20.920Z,65.23
2023-01-11T22:35:23.642Z,65.14
2023-01-11T22:37:26.356Z,65.16
2023-01-11T22:39:29.435Z,65.03
2023-01-11T22:41:33.501Z,64.87
